createdAt,value
2018-09-10T00:04:53.007Z,16.4
2018-09-10T00:09:55.288Z,16.4
2018-09-10T00:14:57.563Z,16.4
2018-09-10T00:19:59.790Z,16.299999
2018-09-10T00:25:02.338Z,16.299999
2018-09-10T00:30:04.371Z,16.1
2018-09-10T00:35:06.742Z,16.1
2018-09-10T00:40:09.094Z,16
2018-09-10T00:45:11.237Z,15.9
2018-09-10T00:50:13.635Z,15.9
2018-09-10T00:55:15.953Z,15.8
2018-09-10T01:00:18.413Z,15.7
2018-09-10T01:05:20.515Z,15.8
2018-09-10T01:10:22.831Z,15.7
2018-09-10T01:15:25.100Z,15.7
2018-09-10T01:20:27.412Z,15.7
2018-09-10T01:25:29.721Z,15.7
2018-09-10T01:30:31.936Z,15.8
2018-09-10T01:35:35.649Z,15.7
2018-09-10T01:40:36.560Z,15.7
2018-09-10T01:45:38.901Z,15.7
2018-09-10T01:50:41.109Z,15.7
2018-09-10T01:55:43.406Z,15.7
2018-09-10T02:00:45.708Z,15.7
2018-09-10T02:05:48.053Z,15.7
2018-09-10T02:10:50.350Z,15.7
2018-09-10T02:15:52.595Z,15.7
2018-09-10T02:20:55.006Z,15.6
2018-09-10T02:25:57.211Z,15.6
2018-09-10T02:30:59.512Z,15.6
2018-09-10T02:36:01.809Z,15.6
2018-09-10T02:41:04.057Z,15.6
2018-09-10T02:46:06.459Z,15.6
2018-09-10T02:51:08.615Z,15.6
2018-09-10T02:56:10.977Z,15.5
2018-09-10T03:01:13.286Z,15.4
2018-09-10T03:06:15.522Z,15.4
2018-09-10T03:11:18.105Z,15.4
2018-09-10T03:16:20.111Z,15.3
2018-09-10T03:21:22.432Z,15.3
2018-09-10T03:26:24.696Z,15.4
2018-09-10T03:31:27.094Z,15.3
2018-09-10T03:36:29.337Z,15.3
2018-09-10T03:41:31.794Z,15.3
2018-09-10T03:46:33.883Z,15.3
2018-09-10T03:51:36.218Z,15.3
2018-09-10T03:56:38.491Z,15.3
2018-09-10T04:01:40.863Z,15.2
2018-09-10T04:06:43.084Z,15.2
2018-09-10T04:11:45.358Z,15.1
2018-09-10T04:16:47.642Z,15.1
2018-09-10T04:21:49.918Z,15
2018-09-10T04:26:52.294Z,15
2018-09-10T04:31:54.572Z,14.9
2018-09-10T04:36:56.865Z,14.9
2018-09-10T04:41:59.189Z,14.8
2018-09-10T04:47:01.495Z,14.9
2018-09-10T04:52:03.734Z,14.8
2018-09-10T04:57:06.094Z,14.8
2018-09-10T05:02:08.350Z,14.7
2018-09-10T05:07:10.640Z,14.7
2018-09-10T05:12:13.037Z,14.7
2018-09-10T05:17:15.253Z,14.7
2018-09-10T05:22:17.520Z,14.7
2018-09-10T05:27:19.774Z,14.7
2018-09-10T05:32:22.069Z,14.7
2018-09-10T05:37:24.455Z,14.7
2018-09-10T05:42:28.088Z,14.7
2018-09-10T05:47:29.057Z,14.6
2018-09-10T05:52:31.216Z,14.6
2018-09-10T05:57:33.527Z,14.6
2018-09-10T06:02:35.854Z,14.6
2018-09-10T06:07:38.178Z,14.6
2018-09-10T06:12:40.437Z,14.7
2018-09-10T06:17:42.774Z,14.7
2018-09-10T06:22:45.010Z,14.7
2018-09-10T06:27:47.382Z,14.7
2018-09-10T06:32:49.661Z,14.8
2018-09-10T06:37:52.080Z,14.8
2018-09-10T06:42:54.181Z,14.9
2018-09-10T06:47:56.473Z,15
2018-09-10T06:52:58.767Z,15.1
2018-09-10T06:58:01.050Z,15.2
2018-09-10T07:03:03.462Z,15.2
2018-09-10T07:08:05.744Z,15.4
2018-09-10T07:13:08.002Z,15.5
2018-09-10T07:18:10.191Z,15.6
2018-09-10T07:23:12.560Z,15.8
2018-09-10T07:28:14.768Z,16.1
2018-09-10T07:33:17.112Z,16.4
2018-09-10T07:38:19.460Z,16.799999
2018-09-10T07:43:21.719Z,17.1
2018-09-10T07:48:24.053Z,17.5
2018-09-10T07:53:26.340Z,17.799999
2018-09-10T07:58:28.724Z,17.9
2018-09-10T08:03:31.973Z,18.1
2018-09-10T08:08:33.172Z,18.4
2018-09-10T08:13:35.456Z,18.5
2018-09-10T08:18:37.807Z,18.799999
2018-09-10T08:23:40.073Z,19.200001
2018-09-10T08:28:42.389Z,19.5
2018-09-10T08:33:44.707Z,20
2018-09-10T08:38:47.088Z,20.299999
2018-09-10T08:43:49.383Z,20.299999
2018-09-10T08:48:51.580Z,20.4
2018-09-10T08:53:53.822Z,20.4
2018-09-10T08:58:56.187Z,20.200001
2018-09-10T09:03:58.485Z,20
2018-09-10T09:09:00.803Z,19.9
2018-09-10T09:14:03.019Z,19.799999
2018-09-10T09:19:05.252Z,19.700001
2018-09-10T09:24:07.662Z,19.6
2018-09-10T09:29:11.018Z,19.700001
2018-09-10T09:34:12.150Z,19.700001
2018-09-10T09:39:14.761Z,20.1
2018-09-10T09:44:16.929Z,20.700001
2018-09-10T09:49:19.102Z,21.200001
2018-09-10T09:54:21.433Z,21.700001
2018-09-10T09:59:23.703Z,22.1
2018-09-10T10:04:26.083Z,22.4
2018-09-10T10:09:28.287Z,22.4
2018-09-10T10:14:30.653Z,22.6
2018-09-10T10:19:32.857Z,22.5
2018-09-10T10:24:35.181Z,22.4
2018-09-10T10:29:37.977Z,22.5
2018-09-10T10:34:39.723Z,22.700001
2018-09-10T10:39:42.028Z,22.4
2018-09-10T10:44:44.283Z,22.299999
2018-09-10T10:49:46.644Z,22.5
2018-09-10T10:54:48.948Z,22.5
2018-09-10T10:59:51.293Z,22.299999
2018-09-10T11:04:53.575Z,22.1
2018-09-10T11:09:56.982Z,22
2018-09-10T11:14:58.124Z,22.1
2018-09-10T11:20:00.334Z,22.6
2018-09-10T11:25:02.697Z,23.700001
2018-09-10T11:30:05.098Z,23.799999
2018-09-10T11:35:07.326Z,23.799999
2018-09-10T11:40:09.514Z,23.700001
2018-09-10T11:50:14.251Z,23.1
2018-09-10T11:55:16.358Z,22.9
2018-09-10T12:00:18.774Z,23.799999
2018-09-10T12:05:22.503Z,24
2018-09-10T12:10:23.302Z,24.5
2018-09-10T12:15:25.637Z,24.6
2018-09-10T12:20:27.936Z,24.6
2018-09-10T12:25:30.282Z,24.299999
2018-09-10T12:30:32.546Z,24
2018-09-10T12:35:34.815Z,23.700001
2018-09-10T12:40:37.214Z,23.4
2018-09-10T12:45:43.404Z,23.200001
2018-09-10T12:50:41.653Z,23
2018-09-10T12:55:44.080Z,22.799999
2018-09-10T13:00:46.291Z,23.299999
2018-09-10T13:05:48.567Z,23.9
2018-09-10T13:10:51.061Z,24.200001
2018-09-10T13:15:53.286Z,23.9
2018-09-10T13:20:55.391Z,23.4
2018-09-10T13:25:57.796Z,23.4
2018-09-10T13:30:59.981Z,23.5
2018-09-10T13:36:02.414Z,23.9
2018-09-10T13:41:04.576Z,23.700001
2018-09-10T13:46:06.971Z,23.700001
2018-09-10T13:51:09.261Z,23.700001
2018-09-10T13:56:11.509Z,23.799999
2018-09-10T14:01:13.814Z,24.700001
2018-09-10T14:06:16.026Z,25.6
2018-09-10T14:11:18.475Z,26
2018-09-10T14:16:20.691Z,25.799999
2018-09-10T14:21:22.942Z,25.1
2018-09-10T14:26:25.312Z,24.700001
2018-09-10T14:31:27.664Z,24.4
2018-09-10T14:36:29.937Z,24
2018-09-10T14:41:32.287Z,23.5
2018-09-10T14:46:34.438Z,23.4
2018-09-10T14:51:36.806Z,23.700001
2018-09-10T14:56:39.060Z,23.799999
2018-09-10T15:01:41.471Z,23.799999
2018-09-10T15:06:43.573Z,23.799999
2018-09-10T15:11:45.851Z,24.1
2018-09-10T15:16:48.313Z,24
2018-09-10T15:21:50.586Z,23.9
2018-09-10T15:26:52.887Z,24.200001
2018-09-10T15:31:55.209Z,24.299999
2018-09-10T15:36:57.601Z,24.1
2018-09-10T15:41:59.742Z,23.6
2018-09-10T15:47:02.038Z,23.299999
2018-09-10T15:52:04.333Z,23.200001
2018-09-10T15:57:06.634Z,23.200001
2018-09-10T16:02:09.061Z,23.200001
2018-09-10T16:07:11.238Z,23.1
2018-09-10T16:12:13.402Z,23.700001
2018-09-10T16:17:15.892Z,24
2018-09-10T16:22:18.048Z,23.700001
2018-09-10T16:27:20.354Z,23.1
2018-09-10T16:32:22.723Z,22.700001
2018-09-10T16:37:24.979Z,22.4
2018-09-10T16:42:27.234Z,22.200001
2018-09-10T16:47:29.541Z,22
2018-09-10T16:52:31.850Z,21.9
2018-09-10T16:57:34.118Z,21.799999
2018-09-10T17:02:36.430Z,21.700001
2018-09-10T17:07:38.869Z,21.5
2018-09-10T17:12:41.117Z,21.299999
2018-09-10T17:17:43.300Z,21.200001
2018-09-10T17:22:45.726Z,21
2018-09-10T17:27:49.402Z,20.9
2018-09-10T17:32:50.189Z,20.9
2018-09-10T17:37:52.453Z,20.700001
2018-09-10T17:42:54.814Z,20.6
2018-09-10T17:47:57.197Z,20.4
2018-09-10T17:52:59.387Z,20.299999
2018-09-10T17:58:01.674Z,20.1
2018-09-10T18:03:04.090Z,19.9
2018-09-10T18:08:06.271Z,19.799999
2018-09-10T18:13:08.640Z,19.6
2018-09-10T18:18:10.956Z,19.5
2018-09-10T18:23:14.187Z,19.200001
2018-09-10T18:28:15.504Z,19.1
2018-09-10T18:33:17.745Z,18.9
2018-09-10T18:38:20.042Z,18.799999
2018-09-10T18:43:22.277Z,18.6
2018-09-10T18:48:24.640Z,18.4
2018-09-10T18:53:26.932Z,18.299999
2018-09-10T18:58:29.328Z,18.200001
2018-09-10T19:03:31.669Z,18.1
2018-09-10T19:08:33.760Z,18
2018-09-10T19:13:36.020Z,17.9
2018-09-10T19:18:38.436Z,17.6
2018-09-10T19:23:40.767Z,17.5
2018-09-10T19:28:42.988Z,17.200001
2018-09-10T19:33:45.344Z,16.9
2018-09-10T19:38:47.562Z,16.5
2018-09-10T19:43:49.920Z,16.299999
2018-09-10T19:48:52.050Z,16.1
2018-09-10T19:53:54.420Z,15.9
2018-09-10T19:58:56.740Z,15.8
2018-09-10T20:03:58.944Z,15.8
2018-09-10T20:09:01.458Z,16
2018-09-10T20:14:03.628Z,16.1
2018-09-10T20:19:05.903Z,16.200001
2018-09-10T20:24:08.196Z,16.200001
2018-09-10T20:29:10.531Z,16.200001
2018-09-10T20:34:12.930Z,16.1
2018-09-10T20:39:15.207Z,16.1
2018-09-10T20:44:17.496Z,16.1
2018-09-10T20:49:19.629Z,16.1
2018-09-10T20:54:21.926Z,16.1
2018-09-10T20:59:24.430Z,16.1
2018-09-10T21:04:26.495Z,16.1
2018-09-10T21:09:28.867Z,16.200001
2018-09-10T21:14:31.050Z,16.1
2018-09-10T21:19:33.443Z,16.1
2018-09-10T21:24:35.748Z,16
2018-09-10T21:29:38.115Z,16.1
2018-09-10T21:34:40.304Z,16
2018-09-10T21:39:42.634Z,15.9
2018-09-10T21:44:44.832Z,15.9
2018-09-10T21:49:47.265Z,15.9
2018-09-10T21:54:49.546Z,15.8
2018-09-10T21:59:51.716Z,15.9
2018-09-10T22:04:54.122Z,15.8
2018-09-10T22:09:56.344Z,15.8
2018-09-10T22:14:58.605Z,15.7
2018-09-10T22:20:00.896Z,15.7
2018-09-10T22:25:03.301Z,15.7
2018-09-10T22:30:05.550Z,15.7
2018-09-10T22:35:07.809Z,15.6
2018-09-10T22:40:10.176Z,15.6
2018-09-10T22:45:12.472Z,15.5
2018-09-10T22:50:14.654Z,15.4
2018-09-10T22:55:17.251Z,15.4
2018-09-10T23:00:19.365Z,15.4
2018-09-10T23:05:21.728Z,15.3
2018-09-10T23:10:23.832Z,15.3
2018-09-10T23:15:27.654Z,15.2
2018-09-10T23:20:28.522Z,15.2
2018-09-10T23:25:30.808Z,15.2
2018-09-10T23:30:33.173Z,15.2
2018-09-10T23:35:35.482Z,15.2
2018-09-10T23:40:37.839Z,15.2
2018-09-10T23:45:40.078Z,15.2
2018-09-10T23:50:42.254Z,15.3
2018-09-10T23:55:44.492Z,15.2
